Latest Observation

65 Stations

10 Minute Data
as of 5/24/22 5:34 AM PDT
Station Date Time Temp (°F) RH (%) Dew Pt (°F) Wind Spd (mph) Wind Dir (°) Wind Gust (mph) Wind Gst Dir (°) Latest Rain (In) Soil Moist (%) Soil Temp (°F) Daily Rain (In) Daily Min Temp (°F) Daily Max Temp (°F) Daily Max Wind (mph)
Hobart Mills 12/28/21 1450 24.4 84 20.1 2.4 SW | 216 7.0 SW | 235 0.00 30.9 37.1 0.57 20.2 38.1 29.4
West Incline Village 5/24/22 0530 46.4   2.6 43   2 24.9   3.6 2.7   0.1 ENE | 57 3.6   0.2 NE | 44 0.00 29.3   0.1 52.4   0.9 0.00 45.7   2.5 51.6   5.0 3.7   0.6
Incline Village (Fairview Blvd) 5/24/22 0530 45.9   0.3 49   15 27.8   8.0 0.0   1.0 N | 0 0.0   3.2 ENE | 68 0.00 25.1   0.4 52.8   0.9 0.00 45.7   0.2 52.7   3.7 6.6   2.2
Incline Village (Diamond Peak) 5/24/22 0530 47.3   2.5 39   2 23.8   3.8 0.3   2.2 W | 267 1.6   7.8 W | 266 0.00 - 34.6   0.0 0.00 46.6   1.9 52.1   4.1 9.3   1.7
Incline Village (Mill Creek) 5/24/22 0530 44.6   1.2 50   12 27.3   5.3 0.0   0.3 N | 0 0.0   1.5 E | 86 0.00 8.7   0.1 50.6   0.9 0.00 44.5   0.7 53.1   2.6 5.1   0.9
Incline Village (Lakeshore Blvd) 5/24/22 0530 38.9   0.9 68   5 29.3   2.7 0.0   0.7 NE | 56 1.9   1.2 NE | 56 0.00 - - 0.00 38.7   1.2 43.9   1.2 4.1   0.1
Glenbrook 5/24/22 0530 41.2   2.7 55   1 26.3   2.9 0.5   0.2 ESE | 122 2.0   0.4 SE | 131 0.00 39.3   0.1 47.7   0.5 0.00 40.8   2.6 48.1   5.1 3.1   11.3
Zephyr Cove 12/28/21 1620 - 100   6 58.3   39.3 0.4   0.5 WNW | 299 2.0   2.5 W | 279 0.00 13.6   0.3 36.7   0.1 0.01 20.0   0.3 23.7   0.0 12.9   0.0
Kingsbury Grade 5/24/22 0530 42.7   4.3 46   11 23.3   2.3 2.1   1.6 NNE | 14 3.7   4.6 N | 7 0.00 4.9   0.0 56.7   0.9 0.00 40.8   1.5 50.4   0.8 6.8   2.4
South Daggett Pass (Ridge) 12/31/21 2350 11.1   12.3 76   3 5.1   12.9 5.9   4.8 SE | 133 10.2   19.5 SSE | 153 0.00 9.8   0.0 36.8   0.1 0.00 11.0   6.9 26.6   0.2 36.1   2.2
Peavine 5/24/22 0530 43.4   1.2 54   8 27.7   5.1 5.6   1.2 SW | 218 7.3   1.2 SW | 217 0.00 17.6   0.5 51.3   0.4 0.00 43.0   1.5 55.1   6.9 7.6   1.0
Northwest Reno 5/24/22 0530 53.6   3.1 37   3 27.9   5.0 7.5   6.4 NW | 318 10.6   5.8 NW | 311 0.00 29.8   0.1 67.0   1.4 0.00 52.6   2.4 61.4   3.7 15.6   1.5
West Verdi 5/24/22 0530 44.0   1.7 56   3 29.3   2.7 0.1   0.1 ENE | 59 1.2   1.2 ENE | 66 0.00 17.7   0.1 66.6   0.8 0.00 43.7   1.5 59.1   7.9 10.7   5.5
West Reno (Mogul) 5/24/22 0530 50.2   4.7 42   4 27.8   1.9 2.0   1.2 WNW | 283 6.7   1.6 WNW | 303 0.00 35.9   0.6 63.9   0.8 0.00 48.4   3.9 61.0   4.7 11.3   3.1
Caughlin (Hunter Lake Trail) 5/24/22 0530 53.7   4.0 35   2 26.7   4.6 0.0   3.0 N | 0 0.0   6.0 S | 189 0.00 17.0   0.0 63.0   1.0 0.00 52.8   4.1 60.0   5.7 10.9   0.9
ArrowCreek 5/24/22 0530 50.2   3.6 41   1 27.4   3.9 3.6   0.9 S | 181 5.5   0.9 S | 171 0.00 14.1   0.2 58.3   0.9 0.00 47.6   1.9 59.0   4.1 9.7   3.2
Virginia Highlands 5/24/22 0530 50.8   1.7 38   7 26.4   6.4 4.8   4.7 W | 267 6.8   5.8 W | 265 0.00 6.4   0.0 61.0   0.6 0.00 50.2   2.2 56.4   3.4 11.2   5.0
Mt Rose Highway 5/24/22 0530 46.4   3.5 39   0 23.0   2.9 1.0   1.6 SW | 228 3.7   2.2 SW | 228 0.00 17.3   0.6 52.6   0.7 0.00 46.1   3.4 52.3   5.4 8.1   0.7
New Washoe City 5/24/22 0530 49.2   5.6 41   1 26.3   4.7 2.5   1.3 NNE | 32 4.0   2.6 NE | 52 0.00 4.2   0.0 63.0   0.7 0.00 48.4   5.9 55.0   3.3 12.5   2.0
Franktown Creek 5/24/22 0530 44.1   3.7 55   3 29.0   2.1 1.8   0.7 NW | 326 4.3   1.7 NNW | 330 0.00 8.9   0.1 61.4   0.7 0.00 43.1   2.8 51.7   3.9 6.0   1.9
Musgrove Creek 5/24/22 0530 51.2   2.7 36   1 25.0   3.1 0.6   0.6 SW | 228 1.7   0.2 WSW | 256 0.00 35.3   0.2 55.3   0.4 0.00 50.4   3.0 57.6   5.2 3.6   0.6
Carson City (Voltaire Canyon) 5/24/22 0530 54.2   4.6 33   7 25.6   0.4 0.0   0.3 NW | 305 0.7   0.9 WNW | 299 0.00 2.4   0.0 65.5   0.7 0.00 53.5   4.5 63.5   4.5 18.6   5.5
Genoa 5/24/22 0530 46.4   0.4 44   1 26.0   0.8 0.1   0.1 WNW | 297 1.5   1.5 WNW | 293 0.00 8.6   0.1 64.2   0.9 0.00 46.0   0.6 55.6   1.8 4.1   2.2
South Genoa (Walleys Hot Springs) 5/24/22 0530 46.0   1.9 56   17 31.3   5.0 2.2   1.4 S | 170 4.5   1.0 S | 178 0.00 4.2   0.6 65.8   0.5 0.00 42.7   0.4 55.0   0.4 7.7   3.9
SW Gardnerville (HWY 88) 5/24/22 0530 41.2   1.6 64   5 30.0   0.4 3.1   1.8 ENE | 78 4.2   1.1 E | 95 0.00 2.8   0.0 61.5   1.0 0.00 38.8   0.8 50.9   1.4 8.2   0.4
North Topaz Lake 5/24/22 0530 52.2   1.2 28   1 20.3   1.8 0.3   0.3 NW | 319 2.1   0.1 WNW | 302 0.00 - - 0.00 52.1   2.4 60.7   3.9 13.5   4.8
Reid Gardner Sub 5/24/22 0530 61.5   8.7 14   2 12.4   10.6 2.5   3.0 W | 281 5.0   7.0 WSW | 251 0.00 - 75.8   0.3 0.00 59.0   11.0 72.1   5.0 9.2   17.3
Corn Creek 5/24/22 0530 69.0   2.4 11   6 13.1   7.3 5.5   6.5 WNW | 287 8.4   9.7 WNW | 288 0.00 3.4   0.0 77.1   0.8 0.02 66.7   0.2 72.0   4.4 13.8   9.1
Lucky Strike 5/24/22 0530 61.3   2.8 15   4 12.8   3.8 6.3   4.3 WNW | 282 9.7   5.2 W | 281 0.00 4.0   0.0 68.4   0.9 0.00 60.2   1.9 65.2   1.8 19.4   4.8
Lower Angel Peak 5/24/22 0530 50.7   0.1 20   2 11.6   1.8 5.6   4.1 WSW | 238 8.4   4.0 WSW | 249 0.00 2.7   0.0 64.3   0.4 0.00 50.4   3.7 55.3   4.2 9.8   0.1
Angel Peak 5/24/22 0530 44.8   1.4 24   3 10.2   1.3 3.4   2.7 NNW | 333 8.6   4.6 NNW | 331 0.00 - 32.0   0.0 0.00 44.6   1.4 48.8   0.8 9.8   14.8
Upper Kyle Canyon 5/24/22 0530 47.8   0.2 22   8 11.3   7.0 3.0   2.6 N | 349 6.2   4.5 NNW | 340 0.00 12.2   0.0 67.0   0.4 0.00 47.0   0.7 51.3   3.9 8.1   9.0
Mt Charleston 5/24/22 0530 45.7   2.6 28   5 14.4   5.8 1.5   0.2 WSW | 253 4.3   1.4 WNW | 285 0.00 0.0   0.0 40.8   3.7 0.00 45.2   2.7 51.4   5.0 6.2   9.3
Mid Kyle Canyon 5/24/22 0530 53.1   3.1 20   8 12.5   5.1 9.3   1.1 WNW | 296 15.2   4.2 WNW | 299 0.00 4.7   0.1 63.8   0.4 0.00 52.5   4.4 56.5   4.7 16.5   2.7
Blue Diamond 5/24/22 0530 51.9   14.0 25   10 17.1   0.4 4.5   0.8 W | 279 6.1   0.1 WNW | 285 0.00 0.7   0.1 75.3   0.5 0.00 51.0   14.5 60.9   14.5 9.8   0.1
Artesian Sub 5/24/22 0530 69.4   4.6 13   2 16.2   7.4 0.3   5.2 WNW | 298 1.9   13.4 WNW | 300 0.00 7.8   0.0 81.6   0.5 0.00 69.1   4.7 76.0   6.1 10.3   6.7
North Henderson 5/24/22 0530 71.0   2.2 12   4 16.3   7.9 1.3   4.9 SW | 225 2.9   6.0 S | 169 0.00 - - 0.00 70.7   2.2 77.6   5.5 17.0   2.5
Sandy Valley 5/24/22 0530 66.0   2.6 15   6 17.3   5.8 2.3   0.1 SE | 128 6.1   0.6 ENE | 73 0.00 6.1   0.0 76.8   0.1 0.00 65.4   3.3 76.2   1.4 11.2   1.2
Searchlight 5/24/22 0530 61.5   4.9 15   2 14.0   6.8 0.1   7.3 SSW | 199 1.5   10.6 SSW | 204 0.00 3.3   0.1 77.3   0.2 0.00 59.3   5.0 68.1   0.0 13.7   1.7
Laughlin 5/24/22 0530 73.8   3.3 17   4 26.4   7.6 2.6   1.2 SW | 228 4.1   1.9 WSW | 241 0.00 3.9   0.1 86.2   0.4 0.00 72.7   2.6 84.1   0.2 14.2   6.6
South Elko 5/24/22 0530 46.5 39 23.2 2.8 SSE | 155 3.6 SSW | 207 0.00 5.4 57.9 0.00 43.7 51.0 8.4
Virginia City 5/24/22 0530 52.2   4.0 32   1 23.0   3.9 0.5   1.5 NW | 308 3.8   0.1 WNW | 296 0.00 5.0   0.1 63.4   1.5 0.00 51.7   3.7 58.5   5.9 25.2   19.1
Lamoille 5/24/22 0530 42.3 46 23.1 4.5 S | 186 5.2 S | 176 0.00 3.9 54.7 0.00 41.2 46.8 7.5
NE Elko 5/24/22 0530 31.4 65 21.0 0.0 N | 0 0.0 WNW | 298 0.00 5.2 59.0 0.00 30.6 38.8 6.7
Six Mile Canyon 5/24/22 0530 50.5   1.8 32   0 21.6   1.4 3.1   2.3 N | 350 4.6   1.9 NNW | 348 0.00 5.9   0.1 67.5   1.3 0.00 50.2   1.8 64.7   7.3 17.4   5.8
North Elko 5/24/22 0530 42.0 47 23.1 1.9 NNE | 31 4.0 ENE | 71 0.00 19.2 58.8 0.00 41.6 51.3 11.4
Winnemucca 5/24/22 0530 44.8   1.9 43   2 23.8   2.7 0.6   5.3 ESE | 120 2.0   5.8 ESE | 122 0.00 5.4   0.1 63.5   1.4 0.00 44.3   2.0 51.1   2.4 8.6   3.7
Max     73.8 68 31.3 9.3 - 15.2 - 0.00 39.3 86.2 0.02 72.7 84.1 25.2
Avg     50.5 37 22.2 2.3 - 4.3 - 0.00 11.3 61.6 - - - -
Min     31.4 11 10.2 0.0 - 0.0 - 0.00 0.0 32.0 0.00 30.6 38.8 3.1